Fairport, New York
Current Conditions -  °F | °C
As of 6:54 PM on Sunday 21 Dec 2014 (Local Time) from KROC Reporting Station
Overcast Overcast  
Wind Chill: 33°   Ceiling: 3300
Heat Index: 33°   Visibility: 10mi
Dew Point: 21°   Wind: 0mph
Humidity: 61%   Direction: NA
Pressure: 30.31"   Gusts: NA
Location:  43.1°N, 77.44°W
Report Text: KROC 212354Z 00000KT 10SM OVC033 01/M06 A3031 RMK AO2 SLP275 T00061061 10028 20006 51007
Loading
Personal Weather Stations






























Interactive Weather Map New forecast layout! Learn more

10-Day Weather Forecast

Advertisements
Track Severe Weather on mobile